Time;durP1;ratioP1;P1;durP2;ratioP2;P2;SDS_P1;SDS_P2;PMS_P1;PMS_P2;Temp;Humidity;BMP_temperature;BMP_pressure;BME280_temperature;BME280_humidity;BME280_pressure;Samples;Min_cycle;Max_cycle;Signal;HPM_P1;HPM_P2
2022/05/24 00:01:20;;;;;;;;;;;24.90;98.30;;;;;;4853668;29;19928;-58
2022/05/24 00:03:47;;;;;;;;;;;24.90;98.30;;;;;;4849439;29;19928;-60
2022/05/24 00:06:15;;;;;;;;;;;24.90;98.30;;;;;;4855586;29;19951;-62
2022/05/24 00:08:43;;;;;;;;;;;24.90;98.30;;;;;;4857678;29;20213;-59
2022/05/24 00:11:10;;;;;;;;;;;24.90;98.30;;;;;;4869976;29;19931;-61
2022/05/24 00:13:37;;;;;;;;;;;24.90;98.30;;;;;;4872449;29;19935;-61
2022/05/24 00:16:05;;;;;;;;;;;24.90;98.40;;;;;;4861369;29;19927;-58
2022/05/24 00:18:32;;;;;;;;;;;24.90;98.40;;;;;;4872258;29;19928;-58
2022/05/24 00:21:00;;;;;;;;;;;24.90;98.40;;;;;;4871633;29;20407;-56
2022/05/24 00:23:29;;;;;;;;;;;24.90;98.40;;;;;;4856183;29;20185;-57
2022/05/24 00:25:59;;;;;;;;;;;24.80;98.30;;;;;;4879494;29;19932;-60
2022/05/24 00:28:28;;;;;;;;;;;24.90;98.40;;;;;;4871501;29;19954;-57
2022/05/24 00:30:55;;;;;;;;;;;24.90;98.40;;;;;;4865693;29;20312;-58
2022/05/24 00:33:23;;;;;;;;;;;24.90;98.30;;;;;;4868811;29;19936;-55
2022/05/24 00:35:50;;;;;;;;;;;24.90;98.30;;;;;;4859762;29;19932;-61
2022/05/24 00:38:25;;;;;;;;;;;24.90;98.30;;;;;;4875002;29;19932;-58
2022/05/24 00:40:55;;;;;;;;;;;24.90;98.30;;;;;;4875621;29;19928;-61
2022/05/24 00:43:35;;;;;;;;;;;24.90;98.40;;;;;;4853244;29;19944;-61
2022/05/24 00:46:14;;;;;;;;;;;24.80;98.30;;;;;;4868993;29;19932;-55
2022/05/24 00:48:59;;;;;;;;;;;24.80;98.30;;;;;;4855587;29;19937;-61
2022/05/24 00:51:30;;;;;;;;;;;24.80;98.40;;;;;;4868934;29;19955;-59
2022/05/24 00:53:57;;;;;;;;;;;24.80;98.40;;;;;;4868641;29;20426;-58
2022/05/24 00:56:33;;;;;;;;;;;24.80;98.40;;;;;;4867143;29;19939;-56
2022/05/24 00:59:05;;;;;;;;;;;24.80;98.40;;;;;;4854283;29;19939;-59
2022/05/24 01:01:38;;;;;;;;;;;24.80;98.40;;;;;;4868680;29;19935;-60
2022/05/24 01:04:06;;;;;;;;;;;24.80;98.40;;;;;;4870378;29;20344;-56
2022/05/24 01:06:34;;;;;;;;;;;24.80;98.40;;;;;;4861619;29;19932;-61
2022/05/24 01:09:03;;;;;;;;;;;24.80;98.40;;;;;;4865054;29;19947;-59
2022/05/24 01:11:32;;;;;;;;;;;24.80;98.40;;;;;;4847724;29;20357;-60
2022/05/24 01:14:00;;;;;;;;;;;24.80;98.40;;;;;;4866925;29;19939;-59
2022/05/24 01:16:27;;;;;;;;;;;24.80;98.40;;;;;;4862887;29;19932;-59
2022/05/24 01:18:54;;;;;;;;;;;24.80;98.40;;;;;;4846044;29;19935;-57
2022/05/24 01:21:22;;;;;;;;;;;24.80;98.50;;;;;;4872398;29;19936;-57
2022/05/24 01:23:55;;;;;;;;;;;24.80;98.30;;;;;;4869168;29;19931;-61
2022/05/24 01:26:41;;;;;;;;;;;24.80;98.30;;;;;;4865452;29;20322;-58
2022/05/24 01:29:09;;;;;;;;;;;24.70;98.30;;;;;;4862300;29;19950;-58
2022/05/24 01:37:10;;;;;;;;;;;24.70;98.30;;;;;;4857097;29;19938;-55
2022/05/24 01:39:38;;;;;;;;;;;24.70;98.30;;;;;;4866671;29;19938;-58
2022/05/24 01:42:06;;;;;;;;;;;24.70;98.30;;;;;;4869218;29;19928;-57
2022/05/24 01:44:51;;;;;;;;;;;24.70;98.30;;;;;;4868138;29;19971;-58
2022/05/24 01:47:19;;;;;;;;;;;24.70;98.30;;;;;;4869750;29;19939;-59
2022/05/24 01:49:49;;;;;;;;;;;24.70;98.30;;;;;;4868861;29;20380;-57
2022/05/24 01:52:21;;;;;;;;;;;24.70;98.30;;;;;;4854117;29;19932;-58
2022/05/24 01:54:54;;;;;;;;;;;24.70;98.30;;;;;;4864928;29;19984;-58
2022/05/24 01:57:32;;;;;;;;;;;24.70;98.40;;;;;;4853472;29;19943;-62
2022/05/24 02:00:01;;;;;;;;;;;24.70;98.40;;;;;;4868836;29;19935;-62
2022/05/24 02:02:29;;;;;;;;;;;24.70;98.30;;;;;;4868708;29;20397;-59
2022/05/24 02:04:56;;;;;;;;;;;24.60;98.40;;;;;;4870768;29;19938;-56
2022/05/24 02:07:24;;;;;;;;;;;24.70;98.30;;;;;;4867393;29;19932;-59
2022/05/24 02:09:53;;;;;;;;;;;24.70;98.30;;;;;;4872450;29;19936;-58
2022/05/24 02:12:29;;;;;;;;;;;24.70;98.30;;;;;;4874202;29;20007;-60
2022/05/24 02:15:05;;;;;;;;;;;24.60;98.30;;;;;;4879083;29;19932;-63
2022/05/24 02:17:39;;;;;;;;;;;24.60;98.40;;;;;;4876347;29;19934;-61
2022/05/24 02:20:08;;;;;;;;;;;24.60;98.30;;;;;;4876869;29;19932;-61
2022/05/24 02:22:36;;;;;;;;;;;24.60;98.40;;;;;;4874842;29;19927;-60
2022/05/24 02:25:20;;;;;;;;;;;24.60;98.40;;;;;;4876902;29;19935;-59
2022/05/24 02:27:47;;;;;;;;;;;24.60;98.50;;;;;;4867443;29;19927;-58
2022/05/24 02:30:17;;;;;;;;;;;24.60;98.50;;;;;;4871163;29;19962;-59
2022/05/24 02:32:45;;;;;;;;;;;24.60;98.50;;;;;;4871929;29;19939;-58
2022/05/24 02:35:12;;;;;;;;;;;24.60;98.50;;;;;;4872063;29;19943;-59
2022/05/24 02:37:39;;;;;;;;;;;24.60;98.50;;;;;;4871019;29;20380;-58
2022/05/24 02:42:53;;;;;;;;;;;24.60;98.60;;;;;;4872175;29;19932;-60
2022/05/24 02:45:21;;;;;;;;;;;24.60;98.60;;;;;;4873710;29;20277;-57
2022/05/24 02:47:49;;;;;;;;;;;24.60;98.60;;;;;;4872457;29;19932;-61
2022/05/24 02:50:16;;;;;;;;;;;24.60;98.60;;;;;;4852342;29;19932;-59
2022/05/24 02:52:43;;;;;;;;;;;24.60;98.60;;;;;;4871043;29;19931;-61
2022/05/24 02:55:11;;;;;;;;;;;24.60;98.70;;;;;;4868946;29;20434;-64
2022/05/24 02:57:40;;;;;;;;;;;24.60;98.50;;;;;;4865397;29;20040;-58
2022/05/24 03:00:10;;;;;;;;;;;24.60;98.70;;;;;;4871273;29;19932;-61
2022/05/24 03:02:38;;;;;;;;;;;24.60;98.70;;;;;;4857260;29;19932;-62
2022/05/24 03:05:07;;;;;;;;;;;24.60;98.70;;;;;;4854601;29;19928;-59
2022/05/24 03:10:20;;;;;;;;;;;24.60;98.80;;;;;;4871755;29;19928;-58
2022/05/24 03:15:36;;;;;;;;;;;24.60;98.90;;;;;;4852084;29;19939;-57
2022/05/24 03:18:03;;;;;;;;;;;24.50;98.90;;;;;;4859892;29;19933;-57
2022/05/24 03:20:30;;;;;;;;;;;24.50;98.90;;;;;;4857413;29;20486;-57
2022/05/24 03:22:59;;;;;;;;;;;24.50;98.90;;;;;;4870394;29;20422;-60
2022/05/24 03:25:26;;;;;;;;;;;24.50;99.00;;;;;;4871713;29;20434;-58
2022/05/24 03:27:53;;;;;;;;;;;24.50;98.90;;;;;;4867341;29;19929;-58
2022/05/24 03:30:20;;;;;;;;;;;24.50;99.00;;;;;;4871650;29;19947;-57
2022/05/24 03:32:48;;;;;;;;;;;24.50;99.00;;;;;;4870264;29;19993;-57
2022/05/24 03:35:15;;;;;;;;;;;24.50;99.10;;;;;;4866254;29;19939;-57
2022/05/24 03:37:42;;;;;;;;;;;24.50;99.10;;;;;;4852081;29;19942;-59
2022/05/24 03:40:10;;;;;;;;;;;24.50;99.10;;;;;;4870244;29;19931;-57
2022/05/24 03:42:37;;;;;;;;;;;24.50;99.20;;;;;;4859396;29;19931;-58
2022/05/24 03:45:07;;;;;;;;;;;24.50;99.10;;;;;;4869520;29;19939;-59
2022/05/24 03:47:35;;;;;;;;;;;24.50;99.20;;;;;;4856093;29;19999;-58
2022/05/24 03:50:03;;;;;;;;;;;24.50;99.20;;;;;;4869456;29;20555;-60
2022/05/24 03:52:30;;;;;;;;;;;24.50;99.10;;;;;;4864555;29;19931;-59
2022/05/24 03:54:57;;;;;;;;;;;24.50;99.20;;;;;;4856217;29;19932;-57
2022/05/24 04:00:12;;;;;;;;;;;24.50;99.20;;;;;;4856660;29;19932;-58
2022/05/24 04:02:39;;;;;;;;;;;24.50;99.30;;;;;;4855962;29;19936;-58
2022/05/24 04:05:06;;;;;;;;;;;24.50;99.30;;;;;;4855197;29;19943;-58
2022/05/24 04:07:33;;;;;;;;;;;24.50;99.40;;;;;;4870005;29;20277;-59
2022/05/24 04:10:01;;;;;;;;;;;24.50;99.40;;;;;;4871475;29;19942;-59
2022/05/24 04:12:28;;;;;;;;;;;24.50;99.40;;;;;;4872909;29;19958;-60
2022/05/24 04:14:55;;;;;;;;;;;24.50;99.40;;;;;;4866909;29;19943;-62
2022/05/24 04:17:23;;;;;;;;;;;24.50;99.50;;;;;;4863880;29;19939;-60
2022/05/24 04:19:50;;;;;;;;;;;24.50;99.50;;;;;;4868719;29;19928;-63
2022/05/24 04:22:17;;;;;;;;;;;24.40;99.50;;;;;;4870106;29;21420;-59
2022/05/24 04:24:45;;;;;;;;;;;24.40;99.50;;;;;;4856256;29;19943;-58
2022/05/24 04:27:13;;;;;;;;;;;24.40;99.50;;;;;;4854545;29;20412;-59
2022/05/24 04:29:41;;;;;;;;;;;24.40;99.50;;;;;;4867515;29;19960;-59
2022/05/24 04:32:09;;;;;;;;;;;24.50;99.50;;;;;;4853556;29;19936;-58
2022/05/24 04:34:37;;;;;;;;;;;24.40;99.40;;;;;;4865016;29;19931;-59
2022/05/24 04:37:07;;;;;;;;;;;24.40;99.40;;;;;;4865530;29;20042;-58
2022/05/24 04:39:35;;;;;;;;;;;24.40;99.40;;;;;;4868087;29;19939;-60
2022/05/24 04:44:49;;;;;;;;;;;24.40;99.50;;;;;;4862949;29;20399;-58
2022/05/24 04:47:17;;;;;;;;;;;24.40;99.50;;;;;;4853082;29;19928;-60
2022/05/24 04:49:47;;;;;;;;;;;24.40;99.50;;;;;;4871725;29;19932;-58
2022/05/24 04:52:16;;;;;;;;;;;24.40;99.50;;;;;;4871782;29;19931;-60
2022/05/24 04:54:44;;;;;;;;;;;24.40;99.50;;;;;;4870166;29;19951;-62
2022/05/24 04:57:12;;;;;;;;;;;24.40;99.50;;;;;;4868772;29;19942;-61
2022/05/24 04:59:39;;;;;;;;;;;24.40;99.50;;;;;;4871991;29;19932;-59
2022/05/24 05:02:06;;;;;;;;;;;24.40;99.50;;;;;;4869322;29;20423;-60
2022/05/24 05:04:34;;;;;;;;;;;24.40;99.50;;;;;;4847035;29;19936;-62
2022/05/24 05:07:01;;;;;;;;;;;24.40;99.50;;;;;;4868957;29;19948;-61
2022/05/24 05:09:34;;;;;;;;;;;24.40;99.50;;;;;;4870912;29;19932;-59
2022/05/24 05:12:02;;;;;;;;;;;24.40;99.50;;;;;;4875283;29;20184;-62
2022/05/24 05:14:29;;;;;;;;;;;24.40;99.00;;;;;;4871587;29;19932;-60
2022/05/24 05:16:57;;;;;;;;;;;24.30;98.70;;;;;;4872830;29;19963;-61
2022/05/24 05:19:24;;;;;;;;;;;24.30;98.40;;;;;;4868352;29;19936;-59
2022/05/24 05:21:51;;;;;;;;;;;24.20;97.90;;;;;;4872365;29;19951;-64
2022/05/24 05:24:20;;;;;;;;;;;24.20;97.40;;;;;;4865250;29;19928;-59
2022/05/24 05:26:47;;;;;;;;;;;24.10;97.10;;;;;;4867772;29;19928;-59
2022/05/24 05:29:15;;;;;;;;;;;24.10;96.70;;;;;;4869773;29;20423;-62
2022/05/24 05:31:42;;;;;;;;;;;24.10;96.40;;;;;;4870385;29;20339;-61
2022/05/24 05:34:09;;;;;;;;;;;24.10;95.40;;;;;;4870775;29;20423;-61
2022/05/24 05:36:36;;;;;;;;;;;24.20;95.40;;;;;;4853865;29;19932;-61
2022/05/24 05:39:04;;;;;;;;;;;24.20;95.30;;;;;;4870777;29;20421;-58
2022/05/24 05:41:31;;;;;;;;;;;24.10;95.40;;;;;;4851297;29;19938;-63
2022/05/24 05:43:59;;;;;;;;;;;24.20;95.40;;;;;;4868640;29;19940;-59
2022/05/24 05:46:26;;;;;;;;;;;24.20;95.50;;;;;;4872901;29;20324;-58
2022/05/24 05:48:54;;;;;;;;;;;24.20;95.90;;;;;;4871245;29;19955;-60
2022/05/24 05:51:21;;;;;;;;;;;24.20;96.10;;;;;;4873919;29;19939;-63
2022/05/24 05:53:49;;;;;;;;;;;24.20;96.30;;;;;;4873689;29;19938;-60
2022/05/24 05:56:17;;;;;;;;;;;24.20;96.60;;;;;;4878248;29;19943;-60
2022/05/24 05:58:45;;;;;;;;;;;24.30;96.80;;;;;;4874124;29;19987;-57
2022/05/24 06:01:17;;;;;;;;;;;24.30;97.10;;;;;;4873466;29;19936;-59
2022/05/24 06:03:44;;;;;;;;;;;24.30;97.20;;;;;;4875357;29;19936;-61
2022/05/24 06:06:15;;;;;;;;;;;24.30;97.30;;;;;;4879221;29;19936;-60
2022/05/24 06:08:42;;;;;;;;;;;24.30;97.40;;;;;;4876032;29;19931;-59
2022/05/24 06:11:09;;;;;;;;;;;24.30;97.90;;;;;;4862549;29;19935;-57
2022/05/24 06:13:36;;;;;;;;;;;24.30;97.90;;;;;;4854614;29;20253;-58
2022/05/24 06:16:03;;;;;;;;;;;24.40;98.20;;;;;;4856229;29;19932;-57
2022/05/24 06:18:31;;;;;;;;;;;24.40;98.30;;;;;;4872104;29;19951;-57
2022/05/24 06:20:58;;;;;;;;;;;24.40;98.60;;;;;;4876389;29;19932;-56
2022/05/24 06:23:27;;;;;;;;;;;24.40;98.50;;;;;;4867332;29;19936;-60
2022/05/24 06:25:55;;;;;;;;;;;24.40;98.50;;;;;;4869292;29;19946;-59
2022/05/24 06:28:22;;;;;;;;;;;24.40;98.70;;;;;;4865560;29;19932;-60
2022/05/24 06:30:49;;;;;;;;;;;24.40;98.60;;;;;;4857086;29;19942;-59
2022/05/24 06:33:17;;;;;;;;;;;24.30;98.30;;;;;;4873696;29;19928;-59
2022/05/24 06:35:44;;;;;;;;;;;24.30;98.40;;;;;;4875246;29;19936;-61
2022/05/24 06:38:12;;;;;;;;;;;24.30;98.60;;;;;;4872917;29;20416;-62
2022/05/24 06:40:39;;;;;;;;;;;24.30;98.70;;;;;;4873660;29;20434;-58
2022/05/24 06:43:06;;;;;;;;;;;24.30;98.80;;;;;;4866007;29;19931;-57
2022/05/24 06:45:34;;;;;;;;;;;24.30;98.90;;;;;;4866483;29;19932;-60
2022/05/24 06:48:01;;;;;;;;;;;24.30;98.90;;;;;;4868898;29;19932;-61
2022/05/24 06:50:28;;;;;;;;;;;24.30;98.90;;;;;;4864340;29;19958;-61
2022/05/24 06:52:56;;;;;;;;;;;24.30;98.90;;;;;;4871293;29;20399;-62
2022/05/24 06:55:24;;;;;;;;;;;24.30;98.90;;;;;;4869689;29;19939;-62
2022/05/24 06:57:51;;;;;;;;;;;24.30;99.10;;;;;;4870741;29;19948;-62
2022/05/24 07:03:06;;;;;;;;;;;24.30;99.20;;;;;;4856710;29;19936;-62
2022/05/24 07:05:34;;;;;;;;;;;24.30;99.10;;;;;;4857310;29;19932;-59
2022/05/24 07:08:01;;;;;;;;;;;24.30;99.10;;;;;;4858209;29;19932;-58
2022/05/24 07:10:29;;;;;;;;;;;24.30;99.10;;;;;;4861468;29;20470;-60
2022/05/24 07:13:01;;;;;;;;;;;24.30;99.10;;;;;;4858457;29;21521;-60
2022/05/24 07:15:30;;;;;;;;;;;24.30;99.10;;;;;;4856654;29;21303;-57
2022/05/24 07:17:58;;;;;;;;;;;24.20;99.00;;;;;;4857824;29;19932;-58
2022/05/24 07:20:26;;;;;;;;;;;24.30;99.00;;;;;;4858498;29;19940;-59
2022/05/24 07:22:54;;;;;;;;;;;24.30;99.00;;;;;;4851291;29;19932;-59
2022/05/24 07:25:22;;;;;;;;;;;24.30;99.00;;;;;;4857640;29;19939;-61
2022/05/24 07:27:49;;;;;;;;;;;24.20;98.90;;;;;;4870230;29;19932;-58
2022/05/24 07:30:16;;;;;;;;;;;24.20;98.90;;;;;;4864167;29;19932;-58
2022/05/24 07:32:45;;;;;;;;;;;24.20;98.90;;;;;;4840732;29;19939;-59
2022/05/24 07:35:13;;;;;;;;;;;24.20;98.90;;;;;;4858941;29;19939;-59
2022/05/24 07:37:40;;;;;;;;;;;24.20;98.90;;;;;;4867641;29;19943;-59
2022/05/24 07:45:48;;;;;;;;;;;24.30;98.80;;;;;;4858221;29;20451;-61
2022/05/24 07:48:17;;;;;;;;;;;24.20;98.70;;;;;;4857849;29;19936;-59
2022/05/24 07:50:44;;;;;;;;;;;24.30;98.70;;;;;;4858903;29;19940;-61
2022/05/24 07:53:12;;;;;;;;;;;24.30;98.70;;;;;;4858523;29;20386;-60
2022/05/24 07:55:39;;;;;;;;;;;24.30;98.70;;;;;;4842042;29;19932;-60
2022/05/24 07:58:06;;;;;;;;;;;24.30;98.70;;;;;;4859099;29;19932;-59
2022/05/24 08:00:35;;;;;;;;;;;24.30;98.70;;;;;;4858941;29;19932;-61
2022/05/24 08:03:03;;;;;;;;;;;24.30;98.70;;;;;;4858415;29;19928;-61
2022/05/24 08:05:31;;;;;;;;;;;24.30;98.60;;;;;;4857458;29;19932;-61
2022/05/24 08:07:58;;;;;;;;;;;24.30;98.60;;;;;;4869631;29;19932;-62
2022/05/24 08:10:25;;;;;;;;;;;24.30;98.60;;;;;;4871363;29;19936;-63
2022/05/24 08:12:52;;;;;;;;;;;24.30;98.50;;;;;;4867105;29;19936;-63
2022/05/24 08:15:19;;;;;;;;;;;24.30;98.50;;;;;;4871696;29;19927;-62
2022/05/24 08:17:47;;;;;;;;;;;24.30;98.50;;;;;;4865487;29;19928;-65
2022/05/24 08:20:14;;;;;;;;;;;24.30;98.20;;;;;;4871701;29;20326;-65
2022/05/24 08:22:41;;;;;;;;;;;24.20;98.50;;;;;;4867341;29;19932;-63
2022/05/24 08:25:10;;;;;;;;;;;24.20;98.50;;;;;;4872543;29;19928;-61
2022/05/24 08:27:37;;;;;;;;;;;24.30;98.80;;;;;;4869492;29;19943;-62
2022/05/24 08:30:06;;;;;;;;;;;24.30;98.90;;;;;;4872492;29;19932;-62
2022/05/24 08:32:33;;;;;;;;;;;24.40;99.10;;;;;;4863382;29;19952;-63
2022/05/24 08:35:01;;;;;;;;;;;24.40;99.30;;;;;;4868399;29;19992;-63
2022/05/24 08:37:29;;;;;;;;;;;24.50;99.80;;;;;;4873892;29;19929;-66
2022/05/24 08:39:59;;;;;;;;;;;24.50;99.80;;;;;;4850544;29;19959;-65
2022/05/24 08:42:28;;;;;;;;;;;24.50;99.50;;;;;;4858745;29;19955;-66
2022/05/24 08:50:40;;;;;;;;;;;24.50;98.00;;;;;;4864319;29;19929;-65
2022/05/24 08:53:09;;;;;;;;;;;24.50;96.90;;;;;;4868966;29;19931;-67
2022/05/24 08:55:40;;;;;;;;;;;24.50;96.90;;;;;;4868412;29;19928;-66
2022/05/24 08:58:27;;;;;;;;;;;24.50;96.00;;;;;;4869183;29;19932;-62
2022/05/24 09:00:54;;;;;;;;;;;24.50;95.60;;;;;;4866035;29;19948;-65
2022/05/24 09:03:25;;;;;;;;;;;24.50;94.80;;;;;;4870670;29;19931;-63
2022/05/24 09:05:57;;;;;;;;;;;24.40;94.70;;;;;;4873215;29;19927;-67
2022/05/24 09:08:52;;;;;;;;;;;24.40;94.20;;;;;;4856516;29;20287;-64
2022/05/24 09:11:32;;;;;;;;;;;24.40;94.20;;;;;;4867951;29;19939;-66
2022/05/24 09:14:02;;;;;;;;;;;24.40;94.10;;;;;;4870759;29;19935;-65
2022/05/24 09:16:35;;;;;;;;;;;24.40;93.80;;;;;;4876904;29;19976;-63
2022/05/24 09:19:23;;;;;;;;;;;24.40;93.60;;;;;;4875301;29;19936;-66
2022/05/24 09:21:52;;;;;;;;;;;24.40;93.20;;;;;;4875196;29;19928;-64
2022/05/24 09:24:38;;;;;;;;;;;24.40;93.20;;;;;;4868133;29;19962;-64
2022/05/24 09:27:14;;;;;;;;;;;24.40;92.80;;;;;;4856802;29;20000;-63
2022/05/24 09:29:58;;;;;;;;;;;24.40;92.60;;;;;;4871507;29;19931;-63
2022/05/24 09:32:29;;;;;;;;;;;24.40;92.60;;;;;;4870765;29;19943;-64
2022/05/24 09:35:01;;;;;;;;;;;24.40;92.20;;;;;;4871703;29;19954;-62
2022/05/24 09:37:29;;;;;;;;;;;24.40;92.20;;;;;;4880011;29;20391;-63
2022/05/24 09:40:07;;;;;;;;;;;24.40;92.00;;;;;;4875906;29;19935;-64
2022/05/24 09:42:36;;;;;;;;;;;24.40;91.90;;;;;;4877772;29;19932;-61
2022/05/24 09:45:07;;;;;;;;;;;24.40;91.70;;;;;;4871652;29;19939;-60
2022/05/24 09:47:43;;;;;;;;;;;24.40;91.60;;;;;;4874803;29;19943;-61
2022/05/24 09:50:25;;;;;;;;;;;24.40;91.70;;;;;;4869225;29;19936;-60
2022/05/24 09:53:12;;;;;;;;;;;24.40;91.50;;;;;;4870098;29;20261;-60
2022/05/24 09:55:42;;;;;;;;;;;24.50;91.20;;;;;;4874859;29;19931;-59
2022/05/24 09:58:18;;;;;;;;;;;24.50;91.00;;;;;;4869298;29;19962;-61
2022/05/24 10:00:53;;;;;;;;;;;24.50;90.80;;;;;;4864042;29;19939;-59
2022/05/24 10:03:25;;;;;;;;;;;24.50;91.10;;;;;;4872458;29;19928;-60
2022/05/24 10:05:54;;;;;;;;;;;24.50;91.20;;;;;;4871736;29;20428;-59
2022/05/24 10:08:21;;;;;;;;;;;24.50;91.20;;;;;;4871738;29;19935;-61
2022/05/24 10:10:52;;;;;;;;;;;24.50;91.30;;;;;;4873578;29;19939;-59
2022/05/24 10:13:33;;;;;;;;;;;24.50;91.60;;;;;;4859385;29;19932;-61
2022/05/24 10:16:00;;;;;;;;;;;24.50;91.50;;;;;;4869531;29;19939;-60
2022/05/24 10:18:27;;;;;;;;;;;24.50;91.40;;;;;;4874941;29;19935;-60
2022/05/24 10:20:54;;;;;;;;;;;24.40;91.20;;;;;;4868231;29;20034;-60
2022/05/24 10:23:21;;;;;;;;;;;24.40;91.10;;;;;;4864356;29;19932;-61
2022/05/24 10:25:53;;;;;;;;;;;24.40;91.20;;;;;;4868494;29;19936;-60
2022/05/24 10:28:34;;;;;;;;;;;24.40;91.00;;;;;;4867219;29;19928;-61
2022/05/24 10:31:25;;;;;;;;;;;24.40;90.90;;;;;;4872859;29;19985;-61
2022/05/24 10:38:17;;;;;;;;;;;24.40;90.50;;;;;;4876669;29;20384;-62
2022/05/24 10:40:17;;;;;;;;;;;24.30;90.30;;;;;;4872648;29;19932;-61
2022/05/24 10:43:03;;;;;;;;;;;24.40;90.50;;;;;;4852781;29;19932;-59
2022/05/24 10:45:51;;;;;;;;;;;24.30;90.50;;;;;;4873945;29;19936;-59
2022/05/24 10:48:37;;;;;;;;;;;24.30;90.30;;;;;;4874612;29;20296;-58
2022/05/24 10:51:11;;;;;;;;;;;24.30;90.50;;;;;;4874972;29;19935;-59
2022/05/24 10:53:38;;;;;;;;;;;24.30;90.80;;;;;;4866690;29;19927;-60
2022/05/24 10:56:08;;;;;;;;;;;24.30;91.20;;;;;;4873247;29;19927;-58
2022/05/24 10:58:38;;;;;;;;;;;24.30;91.50;;;;;;4871832;29;20372;-56
2022/05/24 11:01:05;;;;;;;;;;;24.30;91.50;;;;;;4869904;29;19939;-59
2022/05/24 11:03:34;;;;;;;;;;;24.30;90.80;;;;;;4867205;29;20411;-58
2022/05/24 11:06:03;;;;;;;;;;;24.30;90.40;;;;;;4873406;29;19951;-60
2022/05/24 11:08:40;;;;;;;;;;;24.20;90.50;;;;;;4857137;29;19932;-60
2022/05/24 11:11:25;;;;;;;;;;;24.20;90.90;;;;;;4871169;29;19935;-59
2022/05/24 11:13:52;;;;;;;;;;;24.10;91.00;;;;;;4870660;29;19932;-57
2022/05/24 11:16:21;;;;;;;;;;;24.20;90.30;;;;;;4871880;29;19931;-53
2022/05/24 11:18:49;;;;;;;;;;;24.20;90.20;;;;;;4872457;29;19940;-56
2022/05/24 11:21:37;;;;;;;;;;;24.20;90.00;;;;;;4872132;29;19932;-59
2022/05/24 11:24:06;;;;;;;;;;;24.20;89.80;;;;;;4869878;29;20276;-59
2022/05/24 11:26:35;;;;;;;;;;;24.20;89.90;;;;;;4872197;29;19939;-56
2022/05/24 11:29:14;;;;;;;;;;;24.20;90.50;;;;;;4871517;29;19935;-60
2022/05/24 11:31:44;;;;;;;;;;;24.20;91.10;;;;;;4871839;29;19932;-58
2022/05/24 11:34:18;;;;;;;;;;;24.20;91.90;;;;;;4872388;29;20372;-59
2022/05/24 11:36:48;;;;;;;;;;;24.20;92.30;;;;;;4869328;29;19939;-59
2022/05/24 11:39:26;;;;;;;;;;;24.20;93.30;;;;;;4869627;29;19947;-56
2022/05/24 11:42:11;;;;;;;;;;;24.20;96.50;;;;;;4869520;29;19928;-58
2022/05/24 11:44:39;;;;;;;;;;;24.20;97.60;;;;;;4870073;29;20019;-58
2022/05/24 11:47:06;;;;;;;;;;;24.30;95.80;;;;;;4868929;29;20230;-60
2022/05/24 11:49:40;;;;;;;;;;;24.30;96.40;;;;;;4870024;29;20324;-56
2022/05/24 11:52:26;;;;;;;;;;;24.30;96.70;;;;;;4863943;29;20422;-59
2022/05/24 11:54:54;;;;;;;;;;;24.30;96.70;;;;;;4874040;29;20357;-58
2022/05/24 11:57:25;;;;;;;;;;;24.30;96.60;;;;;;4866379;29;19932;-59
2022/05/24 11:59:52;;;;;;;;;;;24.30;96.80;;;;;;4873621;29;19934;-55
2022/05/24 12:02:26;;;;;;;;;;;24.30;96.70;;;;;;4870221;29;19935;-57
2022/05/24 12:07:56;;;;;;;;;;;24.40;96.90;;;;;;4882302;29;19928;-58
2022/05/24 12:10:24;;;;;;;;;;;24.40;96.60;;;;;;4841917;29;19928;-62
2022/05/24 12:13:12;;;;;;;;;;;24.30;95.20;;;;;;4853787;29;20412;-61
2022/05/24 12:15:40;;;;;;;;;;;24.30;95.00;;;;;;4851873;29;19936;-59
2022/05/24 12:18:08;;;;;;;;;;;24.30;94.80;;;;;;4844485;29;20491;-61
2022/05/24 12:20:35;;;;;;;;;;;24.30;94.80;;;;;;4847228;29;19928;-61
2022/05/24 12:23:02;;;;;;;;;;;24.20;94.40;;;;;;4852587;29;19947;-60
2022/05/24 12:25:48;;;;;;;;;;;24.10;93.80;;;;;;4848629;29;19928;-61
2022/05/24 12:28:16;;;;;;;;;;;24.10;93.30;;;;;;4853492;29;19932;-61
2022/05/24 12:30:45;;;;;;;;;;;24.10;92.60;;;;;;4855532;29;19948;-61
2022/05/24 12:33:24;;;;;;;;;;;24.10;92.30;;;;;;4855063;29;20399;-60
2022/05/24 12:36:05;;;;;;;;;;;24.10;91.90;;;;;;4851863;29;19932;-62
2022/05/24 12:38:34;;;;;;;;;;;24.10;91.10;;;;;;4843653;29;19932;-66
2022/05/24 12:41:10;;;;;;;;;;;24.10;88.10;;;;;;4846074;29;19947;-65
2022/05/24 12:43:51;;;;;;;;;;;24.10;87.20;;;;;;4850591;29;19928;-66
2022/05/24 12:46:19;;;;;;;;;;;24.20;87.20;;;;;;4843576;29;20015;-66
2022/05/24 12:48:47;;;;;;;;;;;24.30;86.20;;;;;;4852729;29;19951;-62
2022/05/24 12:51:18;;;;;;;;;;;24.30;85.70;;;;;;4858787;29;19952;-62
2022/05/24 12:53:45;;;;;;;;;;;24.40;85.10;;;;;;4849889;29;19957;-61
2022/05/24 12:56:18;;;;;;;;;;;24.40;83.90;;;;;;4854305;29;19932;-61
2022/05/24 12:58:46;;;;;;;;;;;24.40;84.00;;;;;;4857108;29;20141;-63
2022/05/24 13:01:24;;;;;;;;;;;24.40;84.10;;;;;;4868433;29;19933;-64
2022/05/24 13:04:07;;;;;;;;;;;24.30;83.20;;;;;;4844719;29;19932;-63
2022/05/24 13:06:56;;;;;;;;;;;24.30;83.40;;;;;;4846318;29;20027;-65
2022/05/24 13:09:24;;;;;;;;;;;24.40;83.50;;;;;;4850205;29;19940;-64
2022/05/24 13:11:53;;;;;;;;;;;24.40;83.20;;;;;;4814315;29;19932;-61
2022/05/24 13:14:20;;;;;;;;;;;24.40;83.10;;;;;;4832506;29;19929;-60
2022/05/24 13:16:47;;;;;;;;;;;24.50;83.00;;;;;;4833081;29;19928;-60
2022/05/24 13:19:15;;;;;;;;;;;24.50;82.80;;;;;;4835531;29;19932;-60
2022/05/24 13:21:42;;;;;;;;;;;24.50;82.70;;;;;;4835966;29;20345;-62
2022/05/24 13:24:17;;;;;;;;;;;24.50;82.30;;;;;;4834969;29;19938;-59
2022/05/24 13:26:57;;;;;;;;;;;24.50;82.10;;;;;;4835044;29;19938;-60
2022/05/24 13:29:24;;;;;;;;;;;24.60;81.60;;;;;;4841587;29;20269;-61
2022/05/24 13:34:42;;;;;;;;;;;24.60;80.40;;;;;;4786895;29;19940;-58
2022/05/24 13:37:12;;;;;;;;;;;24.60;79.90;;;;;;4829688;29;19936;-61
2022/05/24 13:39:39;;;;;;;;;;;24.70;79.70;;;;;;4835689;29;19932;-62
2022/05/24 13:42:24;;;;;;;;;;;24.70;79.50;;;;;;4834312;29;19952;-60
2022/05/24 13:45:07;;;;;;;;;;;24.70;79.50;;;;;;4820254;29;19944;-60
2022/05/24 13:47:36;;;;;;;;;;;24.70;79.60;;;;;;4833408;29;20373;-59
2022/05/24 13:50:16;;;;;;;;;;;24.70;79.50;;;;;;4833440;29;19944;-61
2022/05/24 13:52:49;;;;;;;;;;;24.70;79.40;;;;;;4832693;29;20239;-58
2022/05/24 13:55:18;;;;;;;;;;;24.80;79.30;;;;;;4824421;29;19940;-60
2022/05/24 13:57:46;;;;;;;;;;;24.80;79.00;;;;;;4842486;29;19932;-58
2022/05/24 14:00:22;;;;;;;;;;;24.80;78.90;;;;;;4839281;29;20004;-59
2022/05/24 14:02:53;;;;;;;;;;;24.80;79.00;;;;;;4841093;29;19984;-57
2022/05/24 14:05:31;;;;;;;;;;;24.90;79.20;;;;;;4841343;29;19928;-54
2022/05/24 14:07:58;;;;;;;;;;;24.90;79.50;;;;;;4826523;29;19943;-60
2022/05/24 14:10:26;;;;;;;;;;;25.00;79.90;;;;;;4843862;29;19928;-64
2022/05/24 14:12:53;;;;;;;;;;;25.00;80.20;;;;;;4848046;29;19932;-59
2022/05/24 14:15:20;;;;;;;;;;;25.10;80.60;;;;;;4846903;29;19929;-63
2022/05/24 14:17:50;;;;;;;;;;;25.10;81.00;;;;;;4872029;29;19935;-56
2022/05/24 14:20:18;;;;;;;;;;;25.20;81.30;;;;;;4865835;29;19936;-56
2022/05/24 14:22:45;;;;;;;;;;;25.20;81.60;;;;;;4855587;29;19928;-56
2022/05/24 14:25:13;;;;;;;;;;;25.20;81.80;;;;;;4844995;29;19932;-60
2022/05/24 14:27:41;;;;;;;;;;;25.30;82.20;;;;;;4847514;29;19932;-59
2022/05/24 14:30:09;;;;;;;;;;;25.30;82.50;;;;;;4846548;29;20304;-59
2022/05/24 14:32:42;;;;;;;;;;;25.40;82.70;;;;;;4857065;29;20387;-60
2022/05/24 14:35:10;;;;;;;;;;;25.40;82.90;;;;;;4852830;29;19943;-59
2022/05/24 14:37:37;;;;;;;;;;;25.40;83.00;;;;;;4865892;29;19956;-63
2022/05/24 14:40:06;;;;;;;;;;;25.40;83.20;;;;;;4844387;29;19943;-59
2022/05/24 14:42:34;;;;;;;;;;;25.50;83.50;;;;;;4867874;29;19955;-60
2022/05/24 14:45:04;;;;;;;;;;;25.50;83.70;;;;;;4842312;29;20148;-61
2022/05/24 14:47:31;;;;;;;;;;;25.50;83.80;;;;;;4861471;29;19983;-59
2022/05/24 14:49:58;;;;;;;;;;;25.60;84.00;;;;;;4862799;29;20426;-59
2022/05/24 14:52:27;;;;;;;;;;;25.60;84.30;;;;;;4854322;29;20431;-59
2022/05/24 14:54:54;;;;;;;;;;;25.70;84.90;;;;;;4837635;29;20494;-63
2022/05/24 14:57:22;;;;;;;;;;;25.70;84.70;;;;;;4848620;29;20119;-60
2022/05/24 14:59:51;;;;;;;;;;;25.80;85.40;;;;;;4852692;29;19939;-62
2022/05/24 15:02:19;;;;;;;;;;;25.80;85.80;;;;;;4840666;29;19937;-61
2022/05/24 15:04:47;;;;;;;;;;;25.90;85.80;;;;;;4824012;29;20020;-61
2022/05/24 15:15:40;;;;;;;;;;;25.90;85.80;;;;;;4836720;29;19928;-62
2022/05/24 15:18:08;;;;;;;;;;;26.00;86.20;;;;;;4833005;29;19932;-63
2022/05/24 15:20:36;;;;;;;;;;;26.00;86.30;;;;;;4817442;29;19940;-64
2022/05/24 15:23:07;;;;;;;;;;;26.00;86.30;;;;;;4833275;29;20238;-64
2022/05/24 15:25:36;;;;;;;;;;;26.00;86.60;;;;;;4838667;29;19932;-60